Quito, Ecuador

7:21 AM ECT en Octubre 23, 2014 (GMT -0500)
Yanahuaico | Change Station
CLOSE
Current Station
Estación meteorológica personal
Location: Quito, PICHINCHA
Altura: 8504 ft
Estaciones meteorológicas cercanas

Alt 8504 ft 0.36 °S, 78.50 °W | Updated 9 seconds ago

Mostly Cloudy
Muy nublado
49.2 ° F
Sensación térmica 49 ° F
N
0.0
Viento Variable Viento desde Oeste
Gusts 0.0 mph

Hoy
Alta -- | Baja -- ° F
--% Posibilidad de precipitaciones
Ayer
Alta -- | Baja -- ° F
Precip. -- pul
5:54 AM 6:01 PM
Creciente menguante, 0% visible
Presión 30.45 pul
Visibilidad 6.2 Millas
Nubes Muy nublado 3000 ft
Vientos helados 49 ° F
Punto de rocío 48 ° F
Humedad 97%
Precipitaciones 0.00 pul
Espesor de la nieve No disponible.
UV 1 de una escala de 12
Polen No disponible.
Calidad del aire No disponible.
Flu Activity No disponible.
METAR SELT 231200Z 00000KT 9999 BKN030 11/10 Q1031

More Conditions Fewer Conditions

Presión 30.45 pul
Visibilidad 6.2 Millas
Nubes Muy nublado 3000 ft
Vientos helados 49 ° F
Punto de rocío 48 ° F
Humedad 97%
Precipitaciones 0.00 pul
Espesor de la nieve No disponible.
UV 1 de una escala de 12
Polen No disponible.
Calidad del aire No disponible.
Flu Activity No disponible.
METAR SELT 231200Z 00000KT 9999 BKN030 11/10 Q1031

More Conditions Fewer Conditions

10-Day Weather Forecast

Almanac

Astronomía

Oct. 23, 2014 Salida Puesta
Hora real 5:54 AM ECT 6:01 PM ECT
Crepúsculo civil 5:33 AM ECT 6:22 PM ECT
Crepúsculo náutico 5:09 AM ECT 6:47 PM ECT
Crepúsculo astronómico 4:44 AM ECT 7:11 PM ECT
Luna 5:38 AM ECT 6:01 PM ECT
Horas de luz 12h 49m
Horas de luz
12h 06m
Tomorrow will be 0m 1s longer.
Creciente menguante, 0% of the Moon is Illuminated
Hoy
Creciente menguante
Oct 23
Nueva
Oct 30
Cuarto creciente
Nov 6
Luna llena
Nov 14
Cuarto menguante

Extremos de ayer

Máximos del país Bajas del país

Community

WunderPhotos

Upload Photos

1,764,211 ¡fotos cargadas!

WunderBlogs® & News

Nearby

Calidad del aire

Not available.

Grosos de nieve

Not available.

Actividad de terremotos

Ciudad Distance Mag. Tiempo y dato
No hay informes recientes de la actividad sísmica.
Magnitud mínima muestra es 2,5.

Temperaturas de aguas costeras

Lugar Temperatura
Sin partes meteorológicos de las estaciones

Estaciones meteorológicas cercanas